Huvudsida
METAR-TAF:

METAR-TAF

Flygplatser :

Ørlands, Norge

latitud: 63-42N, longitud: 009-36E, höjd: 0 m

Aktuellt väderrapport

Denna rapport gjordes för 50 minuter sedan, klockan 02:50 UTC
Vind 14 kt från sydost
Temperatur -3°C
Fuktighet 68%
Tryck 993 hPa
Sikt 10 km eller mer
Inga moln under 1 500 m eller inga cumulonimbus

METAR: ENOL 190250Z 13014KT CAVOK M03/M08 Q0993

Tid: 04:40 (03:40 UTC)

Väderprognos

Prognos gäller från 19 kl. 00 UTC till 19 kl. 24 UTC
Vind 18 kt från sydost
Sikt 10 km eller mer
Få moln på en höjd av 2000 ft
Spridda moln på en höjd av 5000 ft

TAF: ENOL 1900/1924 13018KT 9999 FEW020 SCT050

Aktuella väderrapporter och prognoser från 4000 flygplatser (METAR- och TAF-rapporter).

De tillgängliga stationerna syns som gula och röda prickar på kartan.

För musen över prickarna för att se namnen på stationerna.

Klicka sedan för att få väderrapporter och prognoser.

För att ändra kartan: Klicka på de gröna knapparna med ett svart kors på för att zooma in; den gröna knappen med ett streck på för att zooma ut; eller på de gröna pilarna för angränsande kartor.


METAR-TAF: